Time,TemperatureF,DewpointF,PressureIn,WindDirection,WindDirectionDegrees,WindSpeedMPH,WindSpeedGustMPH,Humidity,HourlyPrecipIn,Conditions,Clouds,dailyrainin,SoftwareType,DateUTC
2017-07-26 00:02:00,57.6,41.5,30.16,West,270,4.7,-999.0,55,-99.99,,,0.00,,2017-07-26 06:02:00,
2017-07-26 00:08:00,57.6,42.0,30.16,West,270,4.7,-999.0,56,-99.99,,,0.00,,2017-07-26 06:08:00,
2017-07-26 00:13:00,57.0,41.9,30.17,West,270,4.7,-999.0,57,-99.99,,,0.00,,2017-07-26 06:13:00,
2017-07-26 00:18:00,56.3,42.2,30.17,West,270,3.7,-999.0,59,-99.99,,,0.00,,2017-07-26 06:18:00,
2017-07-26 00:24:00,55.9,41.8,30.17,West,270,4.2,-999.0,59,-99.99,,,0.00,,2017-07-26 06:24:00,
2017-07-26 00:29:00,55.9,41.8,30.17,West,270,5.8,-999.0,59,-99.99,,,0.00,,2017-07-26 06:29:00,
2017-07-26 00:34:00,56.5,41.9,30.17,WNW,292,4.7,-999.0,58,-99.99,,,0.00,,2017-07-26 06:34:00,
2017-07-26 00:39:00,56.5,41.9,30.17,West,270,4.2,-999.0,58,-99.99,,,0.00,,2017-07-26 06:39:00,
2017-07-26 00:44:00,56.3,41.7,30.17,West,270,4.2,-999.0,58,-99.99,,,0.00,,2017-07-26 06:44:00,
2017-07-26 00:50:00,56.1,41.5,30.17,West,270,3.7,-999.0,58,-99.99,,,0.00,,2017-07-26 06:50:00,
2017-07-26 00:55:00,55.0,41.8,30.17,West,270,2.7,-999.0,61,-99.99,,,0.00,,2017-07-26 06:55:00,
2017-07-26 01:00:00,54.9,41.3,30.18,WSW,247,3.7,-999.0,60,-99.99,,,0.00,,2017-07-26 07:00:00,
2017-07-26 01:05:00,54.9,41.3,30.18,West,270,3.7,-999.0,60,-99.99,,,0.00,,2017-07-26 07:05:00,
2017-07-26 01:11:00,55.2,41.6,30.18,West,270,4.2,-999.0,60,-99.99,,,0.00,,2017-07-26 07:11:00,
2017-07-26 01:17:00,54.3,41.6,30.18,West,270,4.7,-999.0,62,-99.99,,,0.00,,2017-07-26 07:17:00,
2017-07-26 01:23:00,54.0,41.3,30.18,West,270,4.2,-999.0,62,-99.99,,,0.00,,2017-07-26 07:23:00,
2017-07-26 01:24:00,54.0,41.7,30.18,West,270,4.7,-999.0,63,-99.99,,,0.00,,2017-07-26 07:24:00,
2017-07-26 01:29:00,54.0,41.3,30.18,West,270,3.7,-999.0,62,-99.99,,,0.00,,2017-07-26 07:29:00,
2017-07-26 01:35:00,54.0,41.7,30.18,West,270,5.3,-999.0,63,-99.99,,,0.00,,2017-07-26 07:35:00,
2017-07-26 01:41:00,54.1,40.5,30.18,West,270,4.2,-999.0,60,-99.99,,,0.00,,2017-07-26 07:41:00,
2017-07-26 01:46:00,55.0,40.9,30.18,West,270,5.3,-999.0,59,-99.99,,,0.00,,2017-07-26 07:46:00,
2017-07-26 01:51:00,55.4,40.9,30.18,West,270,5.3,-999.0,58,-99.99,,,0.00,,2017-07-26 07:51:00,
2017-07-26 01:56:00,55.9,40.4,30.18,West,270,5.8,-999.0,56,-99.99,,,0.00,,2017-07-26 07:56:00,
2017-07-26 02:01:00,54.9,40.8,30.18,West,270,4.2,-999.0,59,-99.99,,,0.00,,2017-07-26 08:01:00,
2017-07-26 02:07:00,53.6,40.5,30.18,West,270,3.7,-999.0,61,-99.99,,,0.00,,2017-07-26 08:07:00,
2017-07-26 02:12:00,53.2,40.5,30.18,West,270,4.2,-999.0,62,-99.99,,,0.00,,2017-07-26 08:12:00,
2017-07-26 02:17:00,52.7,40.5,30.18,West,270,3.7,-999.0,63,-99.99,,,0.00,,2017-07-26 08:17:00,
2017-07-26 02:22:00,53.2,40.5,30.18,WSW,247,3.7,-999.0,62,-99.99,,,0.00,,2017-07-26 08:22:00,
2017-07-26 02:27:00,52.7,40.5,30.18,West,270,4.2,-999.0,63,-99.99,,,0.00,,2017-07-26 08:27:00,
2017-07-26 02:33:00,52.7,40.5,30.18,West,270,4.2,-999.0,63,-99.99,,,0.00,,2017-07-26 08:33:00,
2017-07-26 02:38:00,52.0,40.2,30.18,West,270,3.7,-999.0,64,-99.99,,,0.00,,2017-07-26 08:38:00,
2017-07-26 02:43:00,52.3,40.1,30.18,West,270,3.7,-999.0,63,-99.99,,,0.00,,2017-07-26 08:43:00,
2017-07-26 02:48:00,52.0,40.6,30.19,WSW,247,2.7,-999.0,65,-99.99,,,0.00,,2017-07-26 08:48:00,
2017-07-26 02:53:00,51.1,40.1,30.19,WSW,247,4.2,-999.0,66,-99.99,,,0.00,,2017-07-26 08:53:00,
2017-07-26 02:59:00,50.9,40.7,30.19,West,270,3.2,-999.0,68,-99.99,,,0.00,,2017-07-26 08:59:00,
2017-07-26 03:04:00,50.5,40.0,30.19,WSW,247,4.2,-999.0,67,-99.99,,,0.00,,2017-07-26 09:04:00,
2017-07-26 03:09:00,50.5,40.0,30.19,SW,225,3.7,-999.0,67,-99.99,,,0.00,,2017-07-26 09:09:00,
2017-07-26 03:14:00,50.5,40.3,30.19,WSW,247,3.7,-999.0,68,-99.99,,,0.00,,2017-07-26 09:14:00,
2017-07-26 03:21:00,49.8,40.0,30.19,West,270,1.7,-999.0,69,-99.99,,,0.00,,2017-07-26 09:21:00,
2017-07-26 03:26:00,49.6,40.2,30.19,West,270,2.7,-999.0,70,-99.99,,,0.00,,2017-07-26 09:26:00,
2017-07-26 03:31:00,49.5,40.1,30.19,WSW,247,3.2,-999.0,70,-99.99,,,0.00,,2017-07-26 09:31:00,
2017-07-26 03:36:00,49.5,40.1,30.19,WSW,247,3.2,-999.0,70,-99.99,,,0.00,,2017-07-26 09:36:00,
2017-07-26 03:42:00,49.5,40.5,30.19,West,270,2.7,-999.0,71,-99.99,,,0.00,,2017-07-26 09:42:00,
2017-07-26 03:47:00,49.3,39.6,30.19,West,270,4.2,-999.0,69,-99.99,,,0.00,,2017-07-26 09:47:00,
2017-07-26 03:53:00,49.6,39.8,30.19,West,270,2.7,-999.0,69,-99.99,,,0.00,,2017-07-26 09:53:00,
2017-07-26 03:58:00,49.5,40.1,30.19,West,270,3.2,-999.0,70,-99.99,,,0.00,,2017-07-26 09:58:00,
2017-07-26 04:04:00,49.8,40.0,30.20,West,270,4.2,-999.0,69,-99.99,,,0.00,,2017-07-26 10:04:00,
2017-07-26 04:09:00,49.8,40.0,30.20,West,270,4.2,-999.0,69,-99.99,,,0.00,,2017-07-26 10:09:00,
2017-07-26 04:14:00,49.8,40.0,30.20,West,270,3.7,-999.0,69,-99.99,,,0.00,,2017-07-26 10:14:00,
2017-07-26 04:19:00,49.6,39.8,30.20,West,270,3.7,-999.0,69,-99.99,,,0.00,,2017-07-26 10:19:00,
2017-07-26 04:24:00,49.6,39.8,30.20,West,270,3.7,-999.0,69,-99.99,,,0.00,,2017-07-26 10:24:00,
2017-07-26 04:30:00,49.6,39.8,30.20,West,270,4.2,-999.0,69,-99.99,,,0.00,,2017-07-26 10:30:00,
2017-07-26 04:35:00,50.0,39.9,30.20,West,270,4.7,-999.0,68,-99.99,,,0.00,,2017-07-26 10:35:00,
2017-07-26 04:40:00,49.3,39.9,30.20,West,270,4.7,-999.0,70,-99.99,,,0.00,,2017-07-26 10:40:00,
2017-07-26 04:45:00,48.4,39.4,30.20,West,270,4.2,-999.0,71,-99.99,,,0.00,,2017-07-26 10:45:00,
2017-07-26 04:50:00,48.4,39.4,30.20,West,270,4.2,-999.0,71,-99.99,,,0.00,,2017-07-26 10:50:00,
2017-07-26 04:56:00,48.6,39.3,30.20,West,270,3.2,-999.0,70,-99.99,,,0.00,,2017-07-26 10:56:00,
2017-07-26 05:01:00,49.6,39.5,30.21,West,270,4.2,-999.0,68,-99.99,,,0.00,,2017-07-26 11:01:00,
2017-07-26 05:06:00,49.8,39.7,30.21,WSW,247,3.2,-999.0,68,-99.99,,,0.00,,2017-07-26 11:06:00,
2017-07-26 05:11:00,49.1,39.4,30.21,West,270,3.2,-999.0,69,-99.99,,,0.00,,2017-07-26 11:11:00,
2017-07-26 05:16:00,48.4,39.4,30.21,West,270,3.7,-999.0,71,-99.99,,,0.00,,2017-07-26 11:16:00,
2017-07-26 05:21:00,48.0,39.0,30.21,West,270,3.2,-999.0,71,-99.99,,,0.00,,2017-07-26 11:21:00,
2017-07-26 05:26:00,48.4,39.1,30.21,West,270,3.7,-999.0,70,-99.99,,,0.00,,2017-07-26 11:26:00,
2017-07-26 05:32:00,48.2,39.2,30.21,West,270,3.2,-999.0,71,-99.99,,,0.00,,2017-07-26 11:32:00,
2017-07-26 05:37:00,48.2,39.2,30.21,West,270,3.7,-999.0,71,-99.99,,,0.00,,2017-07-26 11:37:00,
2017-07-26 05:42:00,48.2,39.6,30.21,West,270,3.7,-999.0,72,-99.99,,,0.00,,2017-07-26 11:42:00,
2017-07-26 05:48:00,47.8,39.2,30.21,West,270,3.7,-999.0,72,-99.99,,,0.00,,2017-07-26 11:48:00,
2017-07-26 05:53:00,47.8,38.9,30.21,West,270,3.2,-999.0,71,-99.99,,,0.00,,2017-07-26 11:53:00,
2017-07-26 05:59:00,48.0,39.4,30.21,West,270,4.2,-999.0,72,-99.99,,,0.00,,2017-07-26 11:59:00,
2017-07-26 06:04:00,48.0,39.4,30.21,West,270,3.7,-999.0,72,-99.99,,,0.00,,2017-07-26 12:04:00,
2017-07-26 06:09:00,47.3,39.4,30.21,West,270,3.7,-999.0,74,-99.99,,,0.00,,2017-07-26 12:09:00,
2017-07-26 06:15:00,47.1,39.2,30.22,WSW,247,2.7,-999.0,74,-99.99,,,0.00,,2017-07-26 12:15:00,
2017-07-26 06:20:00,46.8,39.3,30.22,WSW,247,2.7,-999.0,75,-99.99,,,0.00,,2017-07-26 12:20:00,
2017-07-26 06:25:00,46.8,39.6,30.22,West,270,2.7,-999.0,76,-99.99,,,0.00,,2017-07-26 12:25:00,
2017-07-26 06:30:00,46.8,39.6,30.22,WSW,247,3.7,-999.0,76,-99.99,,,0.00,,2017-07-26 12:30:00,
2017-07-26 06:35:00,46.9,39.4,30.22,West,270,3.2,-999.0,75,-99.99,,,0.00,,2017-07-26 12:35:00,
2017-07-26 06:41:00,47.7,39.8,30.22,WSW,247,3.2,-999.0,74,-99.99,,,0.00,,2017-07-26 12:41:00,
2017-07-26 06:46:00,47.8,39.9,30.23,West,270,2.2,-999.0,74,-99.99,,,0.00,,2017-07-26 12:46:00,
2017-07-26 06:51:00,48.6,40.3,30.23,West,270,2.7,-999.0,73,-99.99,,,0.00,,2017-07-26 12:51:00,
2017-07-26 06:57:00,49.6,40.2,30.23,WSW,247,1.1,-999.0,70,-99.99,,,0.00,,2017-07-26 12:57:00,
2017-07-26 07:03:00,50.7,40.1,30.23,West,270,1.7,-999.0,67,-99.99,,,0.00,,2017-07-26 13:03:00,
2017-07-26 07:08:00,51.4,40.0,30.23,West,270,2.7,-999.0,65,-99.99,,,0.00,,2017-07-26 13:08:00,
2017-07-26 07:13:00,52.0,40.6,30.23,West,270,2.7,-999.0,65,-99.99,,,0.00,,2017-07-26 13:13:00,
2017-07-26 07:18:00,52.2,40.8,30.23,West,270,2.7,-999.0,65,-99.99,,,0.00,,2017-07-26 13:18:00,
2017-07-26 07:23:00,52.2,40.8,30.23,West,270,3.2,-999.0,65,-99.99,,,0.00,,2017-07-26 13:23:00,
2017-07-26 07:29:00,53.1,41.6,30.23,West,270,3.2,-999.0,65,-99.99,,,0.00,,2017-07-26 13:29:00,
2017-07-26 07:34:00,54.0,41.7,30.23,West,270,2.7,-999.0,63,-99.99,,,0.00,,2017-07-26 13:34:00,
2017-07-26 07:39:00,54.9,42.1,30.23,WSW,247,3.2,-999.0,62,-99.99,,,0.00,,2017-07-26 13:39:00,
2017-07-26 07:44:00,55.8,42.6,30.23,West,270,2.2,-999.0,61,-99.99,,,0.00,,2017-07-26 13:44:00,
2017-07-26 07:49:00,56.8,43.1,30.23,West,270,2.2,-999.0,60,-99.99,,,0.00,,2017-07-26 13:49:00,
2017-07-26 07:54:00,58.3,43.6,30.23,WSW,247,1.7,-999.0,58,-99.99,,,0.00,,2017-07-26 13:54:00,
2017-07-26 08:00:00,59.7,44.0,30.23,WSW,247,0.0,-999.0,56,-99.99,,,0.00,,2017-07-26 14:00:00,
2017-07-26 08:05:00,61.2,42.4,30.23,WNW,292,0.0,-999.0,50,-99.99,,,0.00,,2017-07-26 14:05:00,
2017-07-26 08:10:00,63.7,45.2,30.23,SSE,157,1.7,-999.0,51,-99.99,,,0.00,,2017-07-26 14:10:00,
2017-07-26 08:15:00,65.8,47.2,30.23,SSE,157,0.0,-999.0,51,-99.99,,,0.00,,2017-07-26 14:15:00,
2017-07-26 08:20:00,67.3,47.5,30.23,East,90,1.7,-999.0,49,-99.99,,,0.00,,2017-07-26 14:20:00,
2017-07-26 08:25:00,69.1,46.9,30.24,SSE,157,0.0,-999.0,45,-99.99,,,0.00,,2017-07-26 14:25:00,
2017-07-26 08:31:00,70.5,46.9,30.24,ESE,112,1.7,-999.0,43,-99.99,,,0.00,,2017-07-26 14:31:00,
2017-07-26 08:36:00,71.2,47.6,30.24,ESE,112,1.7,-999.0,43,-99.99,,,0.00,,2017-07-26 14:36:00,
2017-07-26 08:41:00,72.0,47.0,30.24,ESE,112,1.1,-999.0,41,-99.99,,,0.00,,2017-07-26 14:41:00,
2017-07-26 08:46:00,72.0,48.3,30.24,SE,135,2.2,-999.0,43,-99.99,,,0.00,,2017-07-26 14:46:00,
2017-07-26 08:52:00,73.9,47.4,30.24,East,90,3.2,-999.0,39,-99.99,,,0.00,,2017-07-26 14:52:00,
2017-07-26 08:57:00,74.8,46.8,30.24,ESE,112,2.2,-999.0,37,-99.99,,,0.00,,2017-07-26 14:57:00,
2017-07-26 09:03:00,75.4,47.3,30.24,ESE,112,1.1,-999.0,37,-99.99,,,0.00,,2017-07-26 15:03:00,
2017-07-26 09:08:00,76.8,47.8,30.24,East,90,1.7,-999.0,36,-99.99,,,0.00,,2017-07-26 15:08:00,
2017-07-26 09:13:00,74.7,48.1,30.24,NE,45,2.2,-999.0,39,-99.99,,,0.00,,2017-07-26 15:13:00,
2017-07-26 09:19:00,71.8,46.2,30.24,ESE,112,2.7,-999.0,40,-99.99,,,0.00,,2017-07-26 15:19:00,
2017-07-26 09:24:00,72.3,47.3,30.24,SE,135,4.7,-999.0,41,-99.99,,,0.00,,2017-07-26 15:24:00,
2017-07-26 09:29:00,72.1,46.5,30.24,SE,135,3.2,-999.0,40,-99.99,,,0.00,,2017-07-26 15:29:00,
2017-07-26 09:35:00,72.7,45.6,30.24,SSE,157,3.2,-999.0,38,-99.99,,,0.00,,2017-07-26 15:35:00,
2017-07-26 09:40:00,73.2,45.4,30.24,ENE,67,3.2,-999.0,37,-99.99,,,0.00,,2017-07-26 15:40:00,
2017-07-26 09:45:00,73.6,45.0,30.24,ESE,112,4.2,-999.0,36,-99.99,,,0.00,,2017-07-26 15:45:00,
2017-07-26 09:50:00,73.4,45.5,30.24,ESE,112,1.7,-999.0,37,-99.99,,,0.00,,2017-07-26 15:50:00,
2017-07-26 09:55:00,74.3,45.6,30.24,East,90,2.2,-999.0,36,-99.99,,,0.00,,2017-07-26 15:55:00,
2017-07-26 10:00:00,74.7,47.4,30.24,SSW,202,2.7,-999.0,38,-99.99,,,0.00,,2017-07-26 16:00:00,
2017-07-26 10:05:00,75.2,45.7,30.24,ESE,112,2.2,-999.0,35,-99.99,,,0.00,,2017-07-26 16:05:00,
2017-07-26 10:10:00,75.7,45.3,30.23,SSW,202,0.0,-999.0,34,-99.99,,,0.00,,2017-07-26 16:10:00,
2017-07-26 10:16:00,76.6,45.4,30.23,NE,45,1.7,-999.0,33,-99.99,,,0.00,,2017-07-26 16:16:00,
2017-07-26 10:21:00,77.2,45.9,30.23,East,90,5.3,-999.0,33,-99.99,,,0.00,,2017-07-26 16:21:00,
2017-07-26 10:26:00,76.8,44.7,30.23,ESE,112,2.2,-999.0,32,-99.99,,,0.00,,2017-07-26 16:26:00,
2017-07-26 10:31:00,77.0,45.7,30.23,South,180,3.7,-999.0,33,-99.99,,,0.00,,2017-07-26 16:31:00,
2017-07-26 10:38:00,79.0,45.8,30.23,East,90,5.3,-999.0,31,-99.99,,,0.00,,2017-07-26 16:38:00,
2017-07-26 10:43:00,78.1,45.0,30.23,SSW,202,3.2,-999.0,31,-99.99,,,0.00,,2017-07-26 16:43:00,
2017-07-26 10:49:00,78.6,45.4,30.23,SSE,157,6.3,-999.0,31,-99.99,,,0.00,,2017-07-26 16:49:00,
2017-07-26 10:54:00,79.3,44.3,30.23,ENE,67,4.7,-999.0,29,-99.99,,,0.00,,2017-07-26 16:54:00,
2017-07-26 10:59:00,80.1,45.0,30.23,ESE,112,4.2,-999.0,29,-99.99,,,0.00,,2017-07-26 16:59:00,